| time (UTC) | temp C | wind direction | speed KPH | gust KPH | rain 1hr cm | rain 24hr cm | rain mn cm | humidity % | barometer mb |
| 20260506183152 | 10 | 323 | 0.0 | 0.0 | 0.00 | 0.00 | 2.51 | 94 | 1013.5 |
| 20260506182616 | 10 | 333 | 0.0 | 0.0 | 0.00 | 0.00 | 2.51 | 93 | 1012.9 |
| 20260506182056 | 10 | 18 | 0.0 | 1.6 | 0.00 | 0.00 | 2.51 | 93 | 1013.1 |
| 20260506181533 | 10 | 320 | 0.0 | 1.6 | 0.00 | 0.00 | 2.51 | 93 | 1013.0 |
| 20260506181016 | 10 | 2 | 1.6 | 1.6 | 0.00 | 0.00 | 2.51 | 93 | 1013.0 |
| 20260506180912 | 10 | 237 | 1.6 | 3.2 | 0.00 | 0.00 | 2.51 | 93 | 1013.0 |
| 20260506180352 | 10 | 334 | 1.6 | 1.6 | 0.00 | 0.00 | 2.51 | 93 | 1013.0 |
| 20260506180133 | 10 | 25 | 1.6 | 3.2 | 0.00 | 0.00 | 2.51 | 93 | 1012.9 |
| 20260506175729 | 10 | 317 | 0.0 | 0.0 | 0.00 | 0.00 | 2.51 | 93 | 1012.8 |
| 20260506175208 | 10 | 107 | 0.0 | 3.2 | 0.00 | 0.00 | 2.51 | 93 | 1012.8 |
| 20260506174649 | 10 | 281 | 0.0 | 1.6 | 0.00 | 0.00 | 2.51 | 93 | 1012.9 |
| 20260506174128 | 11 | 272 | 1.6 | 1.6 | 0.00 | 0.00 | 2.51 | 93 | 1012.7 |
| 20260506173608 | 11 | 338 | 1.6 | 1.6 | 0.00 | 0.00 | 2.51 | 93 | 1012.9 |
| 20260506173048 | 11 | 331 | 0.0 | 0.0 | 0.00 | 0.00 | 2.51 | 93 | 1012.8 |
| 20260506172933 | 11 | 336 | 1.6 | 1.6 | 0.00 | 0.00 | 2.51 | 93 | 1013.0 |
| 20260506172408 | 11 | 311 | 1.6 | 1.6 | 0.00 | 0.00 | 2.51 | 93 | 1013.0 |
| 20260506171848 | 11 | 336 | 0.0 | 0.0 | 0.00 | 0.00 | 2.51 | 92 | 1013.0 |
| 20260506171328 | 11 | 323 | 0.0 | 0.0 | 0.00 | 0.00 | 2.51 | 92 | 1012.9 |
| 20260506170808 | 11 | 73 | 6.4 | 11.3 | 0.00 | 0.00 | 2.51 | 91 | 1012.8 |
| 20260506170248 | 11 | 335 | 1.6 | 1.6 | 0.00 | 0.00 | 2.51 | 92 | 1012.9 |
| 20260506165712 | 11 | 312 | 3.2 | 3.2 | 0.00 | 0.00 | 2.51 | 92 | 1012.7 |